Time;durP1;ratioP1;P1;durP2;ratioP2;P2;SDS_P1;SDS_P2;PMS_P1;PMS_P2;Temp;Humidity;BMP_temperature;BMP_pressure;BME280_temperature;BME280_humidity;BME280_pressure;Samples;Min_cycle;Max_cycle;Signal;HPM_P1;HPM_P2
2021/12/13 00:02:05;;;;;;;10.90;5.05;;;;;;;-0.69;100.00;101611.31;10497284;28;20041;-74
2021/12/13 00:07:21;;;;;;;11.10;6.10;;;;;;;0.77;100.00;101871.56;10497088;28;20127;-74
2021/12/13 00:12:45;;;;;;;15.60;6.53;;;;;;;0.77;100.00;101867.16;10496951;28;20053;-74
2021/12/13 00:17:50;;;;;;;12.55;5.93;;;;;;;0.85;100.00;101857.22;10496471;28;20046;-74
2021/12/13 00:22:53;;;;;;;11.18;5.65;;;;;;;0.56;100.00;101807.97;10496168;28;20044;-74
2021/12/13 00:28:00;;;;;;;16.52;7.05;;;;;;;0.76;100.00;101834.09;10496589;28;20043;-74
2021/12/13 00:33:42;;;;;;;11.82;6.10;;;;;;;0.51;100.00;101770.69;10495869;28;20036;-74
2021/12/13 00:38:51;;;;;;;11.48;6.05;;;;;;;0.57;100.00;101791.34;10495602;28;20041;-74
2021/12/13 00:44:00;;;;;;;11.38;4.88;;;;;;;0.11;100.00;101694.06;10484655;28;20036;-74
2021/12/13 00:49:05;;;;;;;17.33;6.30;;;;;;;0.82;100.00;101827.72;10496147;28;20071;-74
2021/12/13 00:54:26;;;;;;;;;;;;;;;0.88;100.00;101812.59;10493304;28;20036;-74
2021/12/13 00:59:39;;;;;;;16.42;7.22;;;;;;;0.80;100.00;101809.47;10465221;28;19974;-74
2021/12/13 01:04:55;;;;;;;10.48;6.05;;;;;;;0.87;100.00;101805.69;10495494;28;20047;-74
2021/12/13 01:10:47;;;;;;;17.08;7.93;;;;;;;0.85;100.00;101807.50;10495083;28;20041;-75
2021/12/13 01:16:11;;;;;;;17.98;7.93;;;;;;;0.64;100.00;101784.94;10504213;28;20033;-74
2021/12/13 01:21:29;;;;;;;19.27;7.82;;;;;;;-0.85;100.00;101540.69;10503172;28;20041;-75
2021/12/13 01:26:41;;;;;;;16.98;7.80;;;;;;;-0.36;100.00;101598.59;10486237;28;20037;-75
2021/12/13 01:32:03;;;;;;;18.95;7.88;;;;;;;0.75;100.00;101777.47;10502971;28;20554;-75
2021/12/13 01:37:16;;;;;;;16.48;7.80;;;;;;;0.83;100.00;101779.72;10502924;28;20044;-75
2021/12/13 01:42:29;;;;;;;9.18;5.15;;;;;;;0.72;100.00;101756.69;10484559;28;20060;-75
2021/12/13 01:47:37;;;;;;;13.13;5.22;;;;;;;0.08;100.00;101639.34;10502525;28;20059;-76
2021/12/13 01:52:38;;;;;;;19.80;6.70;;;;;;;1.11;100.00;101814.19;10502150;28;20051;-76
2021/12/13 01:57:54;;;;;;;14.07;7.05;;;;;;;1.10;100.00;101819.47;10483905;28;20036;-75
2021/12/13 02:02:55;;;;;;;22.00;8.13;;;;;;;1.12;100.00;101809.78;10502164;28;20040;-74
2021/12/13 02:08:13;;;;;;;15.40;7.18;;;;;;;0.89;100.00;101774.19;10501188;28;20043;-75
2021/12/13 02:13:22;;;;;;;22.23;7.05;;;;;;;0.84;100.00;101763.97;10501798;28;20450;-75
2021/12/13 02:18:28;;;;;;;17.55;6.90;;;;;;;-0.44;100.00;101534.59;10500883;28;20064;-75
2021/12/13 02:23:31;;;;;;;16.65;7.82;;;;;;;1.17;100.00;101792.09;10500971;28;20080;-75
2021/12/13 02:28:35;;;;;;;23.40;7.90;;;;;;;1.13;100.00;101785.31;10500791;28;20397;-75
2021/12/13 02:33:42;;;;;;;;;;;;;;;1.22;100.00;101790.09;10501917;28;20043;-75
2021/12/13 02:38:47;;;;;;;19.85;6.63;;;;;;;0.87;100.00;101737.66;10500034;28;19970;-75
2021/12/13 02:43:51;;;;;;;14.65;6.22;;;;;;;0.99;100.00;101754.56;10500626;28;20127;-75
2021/12/13 02:48:55;;;;;;;;;;;;;;;1.22;100.00;101784.88;10501176;28;20052;-75
2021/12/13 02:54:01;;;;;;;25.17;8.03;;;;;;;1.17;100.00;101794.72;10500273;28;19924;-75
2021/12/13 02:59:04;;;;;;;20.52;7.20;;;;;;;0.47;100.00;101654.97;10499117;28;20044;-75
2021/12/13 03:04:11;;;;;;;21.88;8.38;;;;;;;0.72;100.00;101696.53;10499588;28;20408;-76
2021/12/13 03:09:17;;;;;;;16.48;6.05;;;;;;;1.23;100.00;101767.41;10482965;28;20139;-76
2021/12/13 03:14:34;;;;;;;18.85;7.57;;;;;;;0.56;100.00;101640.63;10487528;28;20477;-76
2021/12/13 03:19:47;;;;;;;19.70;7.95;;;;;;;1.24;100.00;101756.84;10498634;28;20044;-76
2021/12/13 03:25:09;;;;;;;18.17;7.28;;;;;;;1.16;100.00;101747.66;10497944;28;20457;-76
2021/12/13 03:30:36;;;;;;;17.20;7.88;;;;;;;0.85;100.00;101695.03;10491134;28;20037;-75
2021/12/13 03:35:51;;;;;;;20.75;7.45;;;;;;;0.42;100.00;101605.53;10496495;28;20049;-75
2021/12/13 03:40:56;;;;;;;14.60;7.45;;;;;;;0.17;100.00;101571.81;10498240;28;20102;-76
2021/12/13 03:46:02;;;;;;;20.15;6.47;;;;;;;1.17;100.00;101734.53;10495921;28;20052;-75
2021/12/13 03:51:08;;;;;;;16.00;6.25;;;;;;;1.21;100.00;101736.06;10497739;28;20052;-76
2021/12/13 03:56:13;;;;;;;12.43;6.28;;;;;;;1.21;100.00;101745.69;10496959;28;20048;-75
2021/12/13 04:01:20;;;;;;;12.93;6.40;;;;;;;0.57;100.00;101621.38;10497349;28;20511;-77
2021/12/13 04:06:21;;;;;;;15.48;6.28;;;;;;;0.70;100.00;101637.34;10497673;28;20446;-77
2021/12/13 04:11:26;;;;;;;18.50;6.38;;;;;;;1.02;100.00;101693.38;10494669;28;20036;-76
2021/12/13 04:16:47;;;;;;;;;;;;;;;1.32;100.00;101739.03;10444853;28;20060;-74
2021/12/13 04:21:50;;;;;;;15.55;6.28;;;;;;;0.44;100.00;101592.34;10455611;28;19923;-74
2021/12/13 04:26:55;;;;;;;15.27;6.95;;;;;;;1.06;100.00;101714.09;10453830;28;20162;-75
2021/12/13 04:31:59;;;;;;;20.38;7.95;;;;;;;1.13;100.00;101715.47;10454230;28;20049;-73
2021/12/13 04:37:00;;;;;;;14.80;6.55;;;;;;;1.10;100.00;101702.53;10469663;28;20041;-75
2021/12/13 04:42:05;;;;;;;13.07;6.18;;;;;;;1.16;100.00;101711.88;10454220;28;20041;-72
2021/12/13 04:47:16;;;;;;;14.38;5.75;;;;;;;1.31;100.00;101736.47;10454197;28;20051;-75
2021/12/13 04:52:20;;;;;;;14.80;5.70;;;;;;;0.78;100.00;101648.28;10454260;28;20052;-74
2021/12/13 04:57:22;;;;;;;9.80;5.07;;;;;;;1.32;100.00;101728.53;10453079;28;20056;-75
2021/12/13 05:02:24;;;;;;;10.35;4.63;;;;;;;1.30;100.00;101740.84;10453715;28;20047;-75
2021/12/13 05:07:28;;;;;;;11.05;5.38;;;;;;;1.17;100.00;101713.59;10454621;28;20041;-77
2021/12/13 05:12:29;;;;;;;18.67;3.53;;;;;;;0.52;100.00;101597.25;10453896;28;20059;-74
2021/12/13 05:17:39;;;;;;;14.90;5.90;;;;;;;1.32;100.00;101754.72;10453706;28;20048;-74
2021/12/13 05:23:22;;;;;;;9.55;4.63;;;;;;;1.21;100.00;101711.66;10453050;28;20060;-74
2021/12/13 05:28:27;;;;;;;10.23;4.15;;;;;;;1.16;100.00;101717.09;10407800;28;20048;-74
2021/12/13 05:33:32;;;;;;;13.75;5.70;;;;;;;1.40;100.00;101761.34;10435772;28;20052;-74
2021/12/13 05:38:42;;;;;;;12.15;5.18;;;;;;;0.75;100.00;101645.81;10453323;28;20045;-74
2021/12/13 05:43:48;;;;;;;9.13;4.10;;;;;;;1.13;100.00;101717.25;10452195;28;20048;-74
2021/12/13 05:48:56;;;;;;;8.05;3.33;;;;;;;1.44;100.00;101762.91;10452236;28;20053;-74
2021/12/13 05:54:12;;;;;;;10.13;3.78;;;;;;;-0.10;100.00;101492.97;10452646;28;20535;-74
2021/12/13 05:59:27;;;;;;;11.73;4.13;;;;;;;0.44;100.00;101598.44;10456747;28;20051;-74
2021/12/13 06:04:55;;;;;;;13.52;4.90;;;;;;;1.34;100.00;101734.53;10460418;28;20127;-74
2021/12/13 06:10:16;;;;;;;11.27;3.95;;;;;;;1.35;100.00;101722.31;10459551;28;20194;-74
2021/12/13 06:15:16;;;;;;;10.15;3.95;;;;;;;1.59;100.00;101751.69;10460539;28;20049;-74
2021/12/13 06:20:31;;;;;;;14.32;4.35;;;;;;;1.18;100.00;101691.72;10457816;28;20444;-74
2021/12/13 06:25:32;;;;;;;17.70;4.40;;;;;;;1.26;100.00;101714.91;10458464;28;20041;-74
2021/12/13 06:30:38;;;;;;;9.07;2.63;;;;;;;1.41;100.00;101718.53;10460394;28;20037;-76
2021/12/13 06:35:45;;;;;;;11.57;4.38;;;;;;;1.72;100.00;101755.38;10460070;28;20044;-74
2021/12/13 06:41:04;;;;;;;14.55;6.15;;;;;;;1.79;100.00;101753.28;10458282;28;20127;-74
2021/12/13 06:46:11;;;;;;;18.02;5.28;;;;;;;1.54;100.00;101704.75;10458688;28;20070;-74
2021/12/13 06:51:17;;;;;;;13.52;5.32;;;;;;;0.94;100.00;101594.31;10457737;28;20060;-74
2021/12/13 06:56:29;;;;;;;19.63;5.25;;;;;;;1.86;100.00;101727.66;10458988;28;20126;-74
2021/12/13 07:01:36;;;;;;;11.95;4.28;;;;;;;1.91;100.00;101720.38;10456509;28;20045;-74
2021/12/13 07:06:38;;;;;;;14.30;5.40;;;;;;;1.68;99.93;101671.81;10457710;28;20044;-74
2021/12/13 07:11:41;;;;;;;13.00;5.22;;;;;;;1.77;99.87;101687.88;10458341;28;20509;-75
2021/12/13 07:16:52;;;;;;;9.25;4.40;;;;;;;1.07;99.85;101563.16;10456964;28;20036;-74
2021/12/13 07:22:01;;;;;;;10.77;4.55;;;;;;;2.21;100.00;101733.69;10458133;28;20555;-74
2021/12/13 07:27:08;;;;;;;14.80;5.03;;;;;;;2.11;100.00;101707.09;10457170;28;20072;-74
2021/12/13 07:32:32;;;;;;;11.57;5.20;;;;;;;2.34;100.00;101739.16;10456247;28;20543;-74
2021/12/13 07:37:47;;;;;;;6.82;2.45;;;;;;;1.55;100.00;101592.97;10448962;28;20443;-74
2021/12/13 07:43:03;;;;;;;13.45;5.22;;;;;;;2.44;100.00;101735.09;10455236;28;20081;-73
2021/12/13 07:48:09;;;;;;;7.47;3.92;;;;;;;2.51;100.00;101725.97;10456292;28;20059;-74
2021/12/13 07:53:18;;;;;;;13.48;5.15;;;;;;;2.04;99.78;101640.22;10454998;28;20048;-74
2021/12/13 07:58:38;;;;;;;16.00;4.80;;;;;;;2.64;100.00;101726.19;10455623;28;20048;-74
2021/12/13 08:03:53;;;;;;;14.75;4.43;;;;;;;1.84;99.39;101586.22;10470591;28;20041;-74
2021/12/13 08:08:57;;;;;;;12.27;4.50;;;;;;;2.65;99.35;101709.50;10455919;28;20033;-74
2021/12/13 08:13:59;;;;;;;7.30;2.88;;;;;;;2.71;99.50;101696.88;10454751;28;20079;-73
2021/12/13 08:19:15;;;;;;;8.07;3.65;;;;;;;2.66;100.00;101687.56;10455061;28;20501;-74
2021/12/13 08:24:23;;;;;;;8.88;3.35;;;;;;;2.55;99.62;101661.94;10455206;28;20045;-75
2021/12/13 08:29:34;;;;;;;17.45;4.15;;;;;;;2.25;99.76;101599.75;10453891;28;20033;-74
2021/12/13 08:34:55;;;;;;;9.18;3.33;;;;;;;1.92;100.00;101528.19;10453067;28;20127;-73
2021/12/13 08:40:22;;;;;;;13.43;3.40;;;;;;;2.77;99.52;101660.75;10453829;28;20041;-73
2021/12/13 08:45:31;;;;;;;10.38;4.10;;;;;;;2.81;98.79;101686.72;10447929;28;20135;-74
2021/12/13 08:50:38;;;;;;;20.73;4.93;;;;;;;1.62;98.35;101463.41;10454842;28;20064;-75
2021/12/13 08:55:44;;;;;;;8.30;2.95;;;;;;;2.66;98.51;101614.97;10455163;28;20488;-73
2021/12/13 09:00:53;;;;;;;9.00;2.90;;;;;;;2.95;97.82;101663.19;10453954;28;20515;-73
2021/12/13 09:06:09;;;;;;;5.55;2.53;;;;;;;2.90;98.27;101646.00;10453971;28;20101;-74
2021/12/13 09:11:10;;;;;;;10.55;4.55;;;;;;;2.96;98.45;101670.13;10453198;28;20515;-74
2021/12/13 09:16:17;;;;;;;17.50;4.88;;;;;;;2.94;98.94;101640.50;10453828;28;20132;-74
2021/12/13 09:21:20;;;;;;;9.02;2.67;;;;;;;2.83;97.51;101623.66;10451982;28;20036;-73
2021/12/13 09:26:25;;;;;;;8.40;3.45;;;;;;;2.04;97.40;101496.06;10453062;28;20040;-75
2021/12/13 09:31:33;;;;;;;;;;;;;;;3.12;97.94;101659.59;10455723;28;20045;-73
2021/12/13 09:36:38;;;;;;;14.13;4.40;;;;;;;3.01;98.03;101645.41;10460247;28;20375;-73
2021/12/13 09:42:05;;;;;;;7.18;1.92;;;;;;;3.11;98.71;101642.16;10460787;28;20044;-73
2021/12/13 09:47:15;;;;;;;15.90;3.70;;;;;;;2.95;98.39;101609.84;10460913;28;20449;-74
2021/12/13 09:52:36;;;;;;;11.23;3.78;;;;;;;3.06;98.88;101617.94;10460728;28;20496;-73
2021/12/13 09:57:50;;;;;;;28.52;4.07;;;;;;;2.50;98.21;101510.03;10461118;28;20080;-73
2021/12/13 10:02:55;;;;;;;20.75;4.95;;;;;;;2.38;98.17;101496.78;10460502;28;20127;-73
2021/12/13 10:08:01;;;;;;;11.77;2.95;;;;;;;2.50;97.45;101496.09;10459638;28;20075;-74
2021/12/13 10:13:08;;;;;;;14.73;4.18;;;;;;;2.90;98.32;101569.88;10460106;28;20037;-74
2021/12/13 10:18:14;;;;;;;17.60;4.50;;;;;;;2.65;98.43;101523.22;10459067;28;20052;-74
2021/12/13 10:23:20;;;;;;;13.93;4.45;;;;;;;3.14;98.47;101618.38;10458430;28;20041;-73
2021/12/13 10:28:29;;;;;;;9.35;3.00;;;;;;;3.18;98.83;101617.25;10458550;28;20037;-74
2021/12/13 10:33:32;;;;;;;11.90;4.18;;;;;;;3.18;98.30;101605.91;10459512;28;20070;-74
2021/12/13 10:38:37;;;;;;;6.80;2.53;;;;;;;2.53;98.28;101509.03;10459303;28;20047;-73
2021/12/13 10:43:42;;;;;;;23.10;4.85;;;;;;;3.06;99.54;101586.44;10458513;28;20478;-73
2021/12/13 10:48:48;;;;;;;15.35;4.13;;;;;;;3.23;99.09;101605.63;10458657;28;20045;-74
2021/12/13 10:53:51;;;;;;;21.15;4.70;;;;;;;3.07;99.45;101576.78;10457417;28;20033;-74
2021/12/13 10:58:56;;;;;;;11.73;4.00;;;;;;;2.87;99.57;101539.44;10458362;28;20136;-74
2021/12/13 11:04:01;;;;;;;10.07;4.15;;;;;;;2.95;99.89;101523.22;10457274;28;20086;-74
2021/12/13 11:09:10;;;;;;;14.75;5.22;;;;;;;2.83;100.00;101502.94;10457407;28;20044;-73
2021/12/13 11:14:16;;;;;;;11.90;4.13;;;;;;;3.25;98.80;101575.72;10456432;28;20615;-74
2021/12/13 11:19:22;;;;;;;14.82;3.85;;;;;;;3.38;98.99;101594.19;10457779;28;20041;-73
2021/12/13 11:24:24;;;;;;;14.20;4.55;;;;;;;2.70;99.16;101476.59;10472705;28;20131;-74
2021/12/13 11:29:26;;;;;;;14.60;3.65;;;;;;;3.15;98.88;101564.91;10457435;28;20562;-74
2021/12/13 11:35:11;;;;;;;20.77;5.40;;;;;;;2.99;99.81;101537.84;10457488;28;20481;-74
2021/12/13 11:40:19;;;;;;;16.92;4.95;;;;;;;2.32;99.22;101418.47;10457145;28;20471;-74
2021/12/13 11:45:35;;;;;;;18.55;3.70;;;;;;;3.39;98.98;101598.53;10455410;28;20385;-74
2021/12/13 11:51:09;;;;;;;21.25;5.25;;;;;;;3.44;99.72;101586.00;10456844;28;20152;-74
2021/12/13 11:56:50;;;;;;;13.10;4.60;;;;;;;3.46;98.84;101594.59;10438235;28;20051;-74
2021/12/13 12:02:22;;;;;;;11.23;5.32;;;;;;;3.49;99.38;101585.69;10456844;28;20073;-74
2021/12/13 12:07:59;;;;;;;20.02;5.68;;;;;;;3.49;98.76;101588.31;10455167;28;20496;-75
2021/12/13 12:13:31;;;;;;;12.77;4.50;;;;;;;3.52;98.67;101577.63;10456053;28;20041;-75
2021/12/13 12:18:35;;;;;;;16.42;5.60;;;;;;;3.42;98.42;101566.84;10455085;28;20140;-74
2021/12/13 12:23:40;;;;;;;21.33;6.45;;;;;;;3.16;98.90;101516.69;10436856;28;20055;-74
2021/12/13 12:28:46;;;;;;;24.65;6.43;;;;;;;3.51;99.06;101568.91;10454769;28;20409;-74
2021/12/13 12:33:47;;;;;;;18.48;7.35;;;;;;;3.06;98.88;101504.22;10454885;28;20037;-74
2021/12/13 12:39:03;;;;;;;19.50;8.48;;;;;;;3.51;99.01;101568.91;10453328;28;20417;-74
2021/12/13 12:44:05;;;;;;;27.52;8.02;;;;;;;3.51;98.84;101561.03;10445686;28;20039;-74
2021/12/13 12:49:13;;;;;;;21.15;7.57;;;;;;;3.47;98.73;101553.41;10436740;28;20049;-74
2021/12/13 12:54:18;;;;;;;14.48;5.28;;;;;;;3.23;98.45;101505.81;10424162;28;20045;-74
2021/12/13 12:59:22;;;;;;;22.63;8.10;;;;;;;3.51;97.66;101555.78;10447621;28;20488;-73
2021/12/13 13:04:40;;;;;;;24.40;8.45;;;;;;;3.49;98.37;101564.69;10453682;28;20033;-74
2021/12/13 13:09:53;;;;;;;17.73;7.00;;;;;;;3.30;97.58;101536.06;10462688;28;20059;-74
2021/12/13 13:14:56;;;;;;;16.13;4.88;;;;;;;3.28;98.23;101551.88;10444222;28;20048;-75
2021/12/13 13:20:01;;;;;;;19.00;6.97;;;;;;;3.41;98.11;101583.50;10459358;28;20053;-74
2021/12/13 13:25:17;;;;;;;25.05;9.57;;;;;;;3.23;98.87;101545.22;10443653;28;20041;-76
2021/12/13 13:30:45;;;;;;;16.77;8.60;;;;;;;3.10;99.03;101534.59;10456531;28;20044;-74
2021/12/13 13:35:46;;;;;;;17.38;6.32;;;;;;;2.24;99.17;101395.31;10453849;28;20037;-76
2021/12/13 13:40:47;;;;;;;12.98;5.40;;;;;;;1.93;98.69;101330.72;10460102;28;20045;-76
2021/12/13 13:45:52;;;;;;;13.10;4.65;;;;;;;3.28;98.54;101562.38;10461121;28;20064;-75
2021/12/13 13:51:00;;;;;;;13.52;4.43;;;;;;;3.17;98.38;101531.53;10460882;28;20136;-76
2021/12/13 13:56:10;;;;;;;15.05;4.95;;;;;;;3.29;97.80;101545.72;10460275;28;20393;-75
2021/12/13 14:01:20;;;;;;;19.75;4.70;;;;;;;3.35;97.07;101550.59;10460512;28;20056;-74
2021/12/13 14:06:41;;;;;;;21.65;5.45;;;;;;;3.18;97.35;101512.22;10459935;28;20045;-76
2021/12/13 14:11:53;;;;;;;9.25;2.70;;;;;;;2.56;96.81;101424.06;10459859;28;20037;-76
2021/12/13 14:16:57;;;;;;;17.80;4.45;;;;;;;1.97;95.76;101330.44;10441360;28;20037;-77
2021/12/13 14:21:58;;;;;;;8.07;3.70;;;;;;;3.25;95.98;101541.56;10416646;28;20044;-75
2021/12/13 14:27:18;;;;;;;11.88;4.15;;;;;;;2.43;96.47;101416.91;10443012;28;20294;-76
2021/12/13 14:32:20;;;;;;;16.90;4.05;;;;;;;2.64;95.52;101445.47;10460658;28;20048;-75
2021/12/13 14:37:21;;;;;;;10.73;4.43;;;;;;;2.35;95.22;101384.22;10459109;28;20100;-76
2021/12/13 14:42:25;;;;;;;9.05;3.60;;;;;;;1.58;94.90;101278.56;10450827;28;20500;-76
2021/12/13 14:47:40;;;;;;;18.38;4.57;;;;;;;1.50;94.82;101254.59;10418214;28;20057;-76
2021/12/13 14:52:45;;;;;;;7.55;2.72;;;;;;;2.68;94.48;101429.44;10429787;28;20049;-74
2021/12/13 14:57:56;;;;;;;14.25;5.03;;;;;;;2.29;94.65;101364.44;10458490;28;20110;-75
2021/12/13 15:03:04;;;;;;;18.27;5.13;;;;;;;2.06;94.71;101355.28;10459178;28;20400;-76
2021/12/13 15:08:08;;;;;;;12.98;3.88;;;;;;;2.78;94.73;101434.13;10452633;28;20047;-75
2021/12/13 15:13:11;;;;;;;;;;;;;;;3.28;94.84;101506.41;10457652;28;20047;-74
2021/12/13 15:18:14;;;;;;;13.98;4.82;;;;;;;3.20;94.90;101510.34;10457582;28;20050;-75
2021/12/13 15:23:28;;;;;;;10.25;3.72;;;;;;;2.74;94.98;101439.56;10442478;28;20045;-76
2021/12/13 15:28:35;;;;;;;9.07;4.43;;;;;;;3.07;95.67;101477.88;10453286;28;20056;-76
2021/12/13 15:33:38;;;;;;;7.80;4.00;;;;;;;3.16;94.91;101510.59;10416183;28;20046;-75
2021/12/13 15:38:40;;;;;;;13.23;4.13;;;;;;;1.33;95.20;101200.56;10415325;28;20128;-75
2021/12/13 15:43:45;;;;;;;11.73;3.00;;;;;;;3.14;95.61;101484.47;10445647;28;20132;-75
2021/12/13 15:54:18;;;;;;;12.18;4.95;;;;;;;3.03;95.32;101473.75;10455991;28;20055;-75
2021/12/13 15:59:26;;;;;;;18.95;5.13;;;;;;;3.04;95.43;101471.97;10455591;28;20048;-75
2021/12/13 16:04:35;;;;;;;5.90;2.85;;;;;;;2.22;94.91;101342.13;10455153;28;20040;-74
2021/12/13 16:09:46;;;;;;;12.65;3.60;;;;;;;3.16;95.32;101490.44;10448088;28;20072;-73
2021/12/13 16:14:50;;;;;;;10.10;3.72;;;;;;;3.14;95.14;101487.09;10451185;28;20037;-74
2021/12/13 16:20:07;;;;;;;7.60;3.53;;;;;;;3.14;96.06;101476.56;10452438;28;20048;-74
2021/12/13 16:25:11;;;;;;;9.50;4.53;;;;;;;2.83;95.52;101443.44;10449670;28;20496;-73
2021/12/13 16:30:14;;;;;;;12.80;4.47;;;;;;;3.13;96.10;101482.75;10440432;28;20073;-74
2021/12/13 16:35:16;;;;;;;12.52;5.13;;;;;;;2.73;96.01;101427.38;10438996;28;20098;-73
2021/12/13 16:40:23;;;;;;;12.45;4.13;;;;;;;2.33;96.02;101349.34;10449434;28;20103;-74
2021/12/13 16:45:25;;;;;;;13.32;4.60;;;;;;;1.29;95.99;101193.81;10448874;28;20576;-74
2021/12/13 16:50:31;;;;;;;10.80;4.22;;;;;;;2.84;97.03;101428.53;10448398;28;20081;-74
2021/12/13 16:55:34;;;;;;;15.88;5.68;;;;;;;2.15;96.87;101315.41;10448349;28;20044;-73
2021/12/13 17:00:43;;;;;;;11.23;3.75;;;;;;;2.31;97.56;101346.84;10443522;28;20041;-74
2021/12/13 17:05:46;;;;;;;8.15;4.82;;;;;;;3.04;96.81;101449.16;10447113;28;20044;-73
2021/12/13 17:10:54;;;;;;;8.80;4.47;;;;;;;1.80;97.41;101244.97;10445011;28;20072;-73
2021/12/13 17:16:03;;;;;;;15.77;5.40;;;;;;;3.01;96.85;101430.97;10448061;28;20072;-74
2021/12/13 17:21:21;;;;;;;24.63;3.85;;;;;;;3.02;97.34;101416.94;10440784;28;20045;-72
2021/12/13 17:26:45;;;;;;;7.55;3.78;;;;;;;3.04;97.72;101415.03;10444458;28;20055;-74
2021/12/13 17:31:53;;;;;;;10.43;4.38;;;;;;;2.91;97.51;101382.63;10443255;28;20036;-74
2021/12/13 17:36:54;;;;;;;14.70;5.65;;;;;;;1.86;96.94;101194.00;10448692;28;20053;-73
2021/12/13 17:41:57;;;;;;;15.35;5.63;;;;;;;2.94;97.08;101383.28;10449410;28;20388;-74
2021/12/13 17:46:58;;;;;;;12.02;4.68;;;;;;;2.92;97.40;101376.41;10449757;28;20497;-73
2021/12/13 17:52:01;;;;;;;5.85;3.42;;;;;;;2.94;97.23;101364.91;10489670;28;20140;-73
2021/12/13 17:57:02;;;;;;;12.57;4.13;;;;;;;2.63;97.35;101331.81;10488917;28;20048;-73
2021/12/13 18:02:08;;;;;;;13.32;5.18;;;;;;;2.82;97.86;101351.69;10489697;28;20111;-74
2021/12/13 18:07:09;;;;;;;9.68;5.18;;;;;;;2.89;98.13;101380.06;10498485;28;20103;-74
2021/12/13 18:12:22;;;;;;;9.82;3.63;;;;;;;2.13;97.98;101229.97;10497915;28;20029;-73
2021/12/13 18:17:55;;;;;;;8.02;3.05;;;;;;;2.84;98.41;101349.78;10480962;28;20033;-74
2021/12/13 18:22:59;;;;;;;12.05;4.53;;;;;;;3.07;98.32;101370.22;10493296;28;20076;-74
2021/12/13 18:28:20;;;;;;;;;;;;;;;3.12;98.28;101375.22;10488655;28;20082;-74
2021/12/13 18:34:05;;;;;;;13.40;5.47;;;;;;;3.06;98.86;101371.19;10465242;28;19920;-74
2021/12/13 18:39:32;;;;;;;15.90;5.00;;;;;;;1.84;99.53;101177.50;10452386;28;20060;-74
2021/12/13 18:45:05;;;;;;;8.93;5.13;;;;;;;2.91;99.72;101349.34;10500137;28;20040;-73
2021/12/13 18:50:11;;;;;;;11.43;4.53;;;;;;;2.98;99.98;101350.63;10464328;28;20539;-72
2021/12/13 18:55:12;;;;;;;14.63;6.18;;;;;;;3.06;100.00;101373.81;10488601;28;20132;-74
2021/12/13 19:00:36;;;;;;;10.55;4.90;;;;;;;3.07;100.00;101380.72;10496720;28;20568;-74
2021/12/13 19:05:40;;;;;;;8.77;4.72;;;;;;;2.98;100.00;101355.06;10488585;28;20041;-73
2021/12/13 19:11:05;;;;;;;9.75;4.82;;;;;;;3.09;100.00;101389.38;10495094;28;20139;-73
2021/12/13 19:16:35;;;;;;;12.57;4.93;;;;;;;3.15;100.00;101360.09;10496284;28;20047;-73
2021/12/13 19:21:46;;;;;;;15.05;5.25;;;;;;;3.02;100.00;101329.44;10475806;28;20531;-73
2021/12/13 19:26:51;;;;;;;16.80;5.00;;;;;;;3.09;99.92;101342.13;10482867;28;20044;-73
2021/12/13 19:31:53;;;;;;;13.75;4.50;;;;;;;2.95;99.74;101326.38;10489708;28;20393;-73
2021/12/13 19:37:07;;;;;;;11.50;5.05;;;;;;;2.84;100.00;101299.94;10458479;28;20037;-74
2021/12/13 19:42:17;;;;;;;22.10;5.80;;;;;;;3.11;100.00;101331.50;10457373;28;20076;-74
2021/12/13 19:47:32;;;;;;;10.70;5.00;;;;;;;3.24;100.00;101348.19;10456972;28;20079;-74
2021/12/13 19:52:34;;;;;;;;;;;;;;;3.29;99.78;101345.25;10457730;28;20037;-75
2021/12/13 19:57:42;;;;;;;15.25;5.45;;;;;;;3.26;99.68;101340.19;10455804;28;19917;-74
2021/12/13 20:02:52;;;;;;;10.00;3.85;;;;;;;3.29;100.00;101334.75;10454798;28;20052;-74
2021/12/13 20:08:19;;;;;;;12.70;4.63;;;;;;;2.39;100.00;101171.50;10437825;28;20079;-74
2021/12/13 20:13:26;;;;;;;12.50;5.25;;;;;;;3.31;100.00;101315.34;10447375;28;20045;-73
2021/12/13 20:18:42;;;;;;;10.73;4.05;;;;;;;2.50;100.00;101179.56;10454128;28;20040;-74
2021/12/13 20:23:47;;;;;;;12.90;5.20;;;;;;;2.49;100.00;101153.44;10455250;28;20412;-74
2021/12/13 20:28:56;;;;;;;10.48;4.40;;;;;;;3.47;100.00;101295.97;10455576;28;20136;-74
2021/12/13 20:34:06;;;;;;;12.23;4.15;;;;;;;3.49;100.00;101288.84;10455109;28;20072;-74
2021/12/13 20:39:39;;;;;;;10.43;3.88;;;;;;;3.55;100.00;101280.56;10454842;28;20497;-73
2021/12/13 20:44:46;;;;;;;8.95;4.18;;;;;;;3.55;100.00;101275.31;10452315;28;20055;-74
2021/12/13 20:49:50;;;;;;;11.40;4.80;;;;;;;3.57;100.00;101290.03;10454096;28;20111;-74
2021/12/13 20:54:53;;;;;;;8.82;3.72;;;;;;;3.61;99.81;101267.84;10454557;28;20131;-74
2021/12/13 20:59:59;;;;;;;12.07;4.63;;;;;;;3.09;100.00;101192.47;10454906;28;20135;-74
2021/12/13 21:05:10;;;;;;;10.25;4.57;;;;;;;3.46;99.95;101221.59;10453741;28;20127;-74
2021/12/13 21:10:51;;;;;;;9.43;4.85;;;;;;;2.62;99.86;101069.56;10454123;28;20485;-73
2021/12/13 21:16:04;;;;;;;15.88;5.80;;;;;;;3.72;99.80;101235.63;10355777;28;20416;-74
2021/12/13 21:21:12;;;;;;;11.70;4.80;;;;;;;2.81;99.91;101085.78;10461942;28;20045;-74
2021/12/13 21:26:16;;;;;;;13.75;4.93;;;;;;;3.57;99.14;101195.44;10489368;28;20037;-74
2021/12/13 21:31:23;;;;;;;11.85;4.47;;;;;;;3.36;98.80;101157.47;10502367;28;20132;-73
2021/12/13 21:36:35;;;;;;;11.82;4.72;;;;;;;3.54;99.33;101166.75;10502956;28;20086;-74
2021/12/13 21:41:46;;;;;;;12.95;5.60;;;;;;;3.89;99.39;101231.88;10502830;28;20041;-73
2021/12/13 21:47:09;;;;;;;13.13;4.45;;;;;;;3.51;99.38;101135.44;10503181;28;20083;-74
2021/12/13 21:52:22;;;;;;;12.05;3.45;;;;;;;2.67;98.61;100996.69;10503692;28;20041;-74
2021/12/13 21:57:40;;;;;;;13.98;4.70;;;;;;;3.92;99.06;101187.00;10501401;28;20044;-74
2021/12/13 22:02:42;;;;;;;13.30;5.63;;;;;;;3.74;98.94;101159.31;10500906;28;20044;-73
2021/12/13 22:07:52;;;;;;;12.77;4.05;;;;;;;3.95;98.83;101192.03;10501031;28;20557;-73
2021/12/13 22:13:17;;;;;;;13.15;4.93;;;;;;;3.66;99.16;101139.66;10501180;28;20542;-74
2021/12/13 22:18:49;;;;;;;12.93;4.63;;;;;;;3.85;99.41;101165.53;10500932;28;20044;-74
2021/12/13 22:23:55;;;;;;;11.52;4.45;;;;;;;2.90;99.09;101009.13;10472414;28;20412;-73
2021/12/13 22:28:56;;;;;;;11.52;5.00;;;;;;;3.01;99.08;101021.50;10501080;28;20043;-74
2021/12/13 22:34:03;;;;;;;13.52;5.40;;;;;;;3.65;99.08;101127.47;10496845;28;20050;-74
2021/12/13 22:39:06;;;;;;;13.63;4.65;;;;;;;2.96;98.99;100999.97;10482000;28;20056;-74
2021/12/13 22:44:13;;;;;;;10.07;3.75;;;;;;;4.12;98.67;101183.81;10500580;28;20506;-74
2021/12/13 22:49:21;;;;;;;8.95;4.10;;;;;;;3.32;98.69;101040.44;10493017;28;20068;-74
2021/12/13 22:54:26;;;;;;;12.85;4.28;;;;;;;4.07;98.86;101161.44;10489943;28;20044;-73
2021/12/13 22:59:32;;;;;;;11.82;5.47;;;;;;;3.92;99.04;101118.66;10486272;28;20059;-73
2021/12/13 23:04:40;;;;;;;7.10;4.30;;;;;;;4.18;99.55;101172.03;10497933;28;20041;-74
2021/12/13 23:09:47;;;;;;;9.38;3.88;;;;;;;3.53;98.54;101052.13;10462254;28;20122;-74
2021/12/13 23:14:49;;;;;;;9.25;3.65;;;;;;;3.43;98.81;101051.88;10458713;28;20076;-74
2021/12/13 23:19:50;;;;;;;12.90;5.30;;;;;;;3.23;98.93;101013.03;10457392;28;20068;-74
2021/12/13 23:24:52;;;;;;;10.50;5.10;;;;;;;4.16;99.50;101173.09;10457367;28;20163;-73
2021/12/13 23:29:55;;;;;;;9.55;3.83;;;;;;;3.99;99.40;101145.34;10456775;28;20435;-73
2021/12/13 23:34:58;;;;;;;12.40;4.63;;;;;;;3.39;98.97;101036.47;10457817;28;20045;-74
2021/12/13 23:50:47;;;;;;;11.02;4.25;;;;;;;4.24;99.32;101157.63;10454956;28;20107;-74
2021/12/13 23:56:00;;;;;;;11.73;4.32;;;;;;;4.06;99.17;101131.66;10456573;28;20068;-74
